Time;durP1;ratioP1;P1;durP2;ratioP2;P2;SDS_P1;SDS_P2;PMS_P1;PMS_P2;Temp;Humidity;BMP_temperature;BMP_pressure;BME280_temperature;BME280_humidity;BME280_pressure;Samples;Min_cycle;Max_cycle;Signal;HPM_P1;HPM_P2
2023/09/24 00:01:23;;;;;;;0.10;0.10;;;15.50;99.90;;;;;;7391636;19;20142;-83
2023/09/24 00:03:49;;;;;;;0.10;0.10;;;15.50;99.90;;;;;;7390592;19;20161;-83
2023/09/24 00:06:15;;;;;;;0.20;0.20;;;15.50;99.90;;;;;;7389743;19;20156;-83
2023/09/24 00:08:41;;;;;;;0.20;0.20;;;15.60;99.90;;;;;;7392188;19;20202;-83
2023/09/24 00:11:08;;;;;;;0.15;0.15;;;15.60;99.90;;;;;;7391667;19;20143;-83
2023/09/24 00:13:35;;;;;;;0.13;0.13;;;15.60;99.90;;;;;;7390805;19;20145;-83
2023/09/24 00:16:06;;;;;;;0.10;0.10;;;15.60;99.90;;;;;;7393605;19;20147;-84
2023/09/24 00:18:36;;;;;;;0.22;0.22;;;15.50;99.90;;;;;;7391695;19;20158;-83
2023/09/24 00:21:02;;;;;;;0.20;0.20;;;15.30;99.90;;;;;;7393803;19;20156;-83
2023/09/24 00:23:28;;;;;;;0.10;0.10;;;15.30;99.90;;;;;;7391683;19;20142;-82
2023/09/24 00:25:57;;;;;;;0.10;0.10;;;15.30;99.90;;;;;;7388416;19;20155;-83
2023/09/24 00:28:26;;;;;;;0.20;0.20;;;15.20;99.90;;;;;;7391737;19;20141;-82
2023/09/24 00:30:54;;;;;;;0.20;0.20;;;15.10;99.90;;;;;;7392055;19;20555;-83
2023/09/24 00:33:21;;;;;;;0.10;0.10;;;15.20;99.90;;;;;;7397711;19;20134;-84
2023/09/24 00:35:48;;;;;;;0.10;0.10;;;15.20;99.90;;;;;;7396527;19;20509;-84
2023/09/24 00:38:13;;;;;;;0.10;0.10;;;15.20;99.90;;;;;;7397756;19;20131;-84
2023/09/24 00:40:39;;;;;;;0.10;0.10;;;15.20;99.90;;;;;;7399151;19;20139;-83
2023/09/24 00:43:31;;;;;;;0.10;0.10;;;15.20;99.90;;;;;;7397420;19;20226;-84
2023/09/24 00:45:59;;;;;;;0.10;0.10;;;15.10;99.90;;;;;;7396502;19;20149;-83
2023/09/24 00:48:30;;;;;;;0.20;0.20;;;15.20;99.90;;;;;;7398413;19;20488;-82
2023/09/24 00:51:02;;;;;;;0.20;0.20;;;15.10;99.90;;;;;;7395887;19;20662;-83
2023/09/24 00:53:30;;;;;;;0.20;0.20;;;15.20;99.90;;;;;;7396805;19;20496;-83
2023/09/24 00:55:57;;;;;;;0.20;0.20;;;15.30;99.90;;;;;;7396621;19;20538;-83
2023/09/24 00:58:24;;;;;;;0.20;0.20;;;15.20;99.90;;;;;;7397139;19;20540;-84
2023/09/24 01:00:52;;;;;;;0.10;0.10;;;15.10;99.90;;;;;;7395979;19;20147;-84
2023/09/24 01:03:19;;;;;;;0.20;0.20;;;15.10;99.90;;;;;;7396549;19;20130;-83
2023/09/24 01:05:49;;;;;;;0.20;0.20;;;15.00;99.90;;;;;;7395234;19;20154;-83
2023/09/24 01:08:17;;;;;;;0.10;0.10;;;15.00;99.90;;;;;;7397319;19;20591;-84
2023/09/24 01:10:46;;;;;;;0.17;0.17;;;14.80;99.90;;;;;;7396385;19;20143;-84
2023/09/24 01:13:15;;;;;;;0.17;0.17;;;14.70;99.90;;;;;;7397163;19;20593;-83
2023/09/24 01:15:44;;;;;;;0.10;0.10;;;14.80;99.90;;;;;;7396625;19;20142;-84
2023/09/24 01:18:10;;;;;;;0.00;0.00;;;14.90;99.90;;;;;;7392433;19;20213;-83
2023/09/24 01:20:36;;;;;;;0.20;0.20;;;15.20;99.90;;;;;;7397308;19;20155;-82
2023/09/24 01:23:04;;;;;;;0.22;0.22;;;15.20;99.90;;;;;;7395664;19;20154;-83
2023/09/24 01:25:35;;;;;;;0.20;0.20;;;15.00;99.90;;;;;;7396788;19;20165;-83
2023/09/24 01:28:06;;;;;;;0.10;0.10;;;15.00;99.90;;;;;;7396309;19;20145;-83
2023/09/24 01:30:33;;;;;;;0.10;0.10;;;14.50;99.90;;;;;;7396712;19;20202;-83
2023/09/24 01:32:59;;;;;;;0.20;0.20;;;14.40;99.90;;;;;;7396267;19;20153;-82
2023/09/24 01:35:28;;;;;;;0.17;0.17;;;14.40;99.90;;;;;;7395707;19;20135;-83
2023/09/24 01:37:59;;;;;;;0.30;0.30;;;14.50;99.90;;;;;;7397846;19;20142;-84
2023/09/24 01:40:32;;;;;;;0.13;0.13;;;14.70;99.90;;;;;;7395422;19;20138;-84
2023/09/24 01:42:59;;;;;;;0.20;0.20;;;14.60;99.90;;;;;;7394610;19;20587;-84
2023/09/24 01:45:26;;;;;;;0.20;0.20;;;14.80;99.90;;;;;;7395179;19;20261;-84
2023/09/24 01:47:52;;;;;;;0.10;0.10;;;14.90;99.90;;;;;;7394288;19;20131;-84
2023/09/24 01:50:18;;;;;;;0.10;0.10;;;14.70;99.90;;;;;;7395080;19;20517;-83
2023/09/24 01:52:48;;;;;;;0.20;0.20;;;14.40;99.90;;;;;;7397365;19;20134;-84
2023/09/24 01:55:15;;;;;;;0.28;0.20;;;14.30;99.90;;;;;;7395963;19;20126;-83
2023/09/24 01:57:44;;;;;;;0.10;0.10;;;14.50;99.90;;;;;;7396797;19;20135;-83
2023/09/24 02:00:11;;;;;;;0.10;0.10;;;14.60;99.90;;;;;;7396252;19;20225;-83
2023/09/24 02:02:41;;;;;;;0.10;0.10;;;14.60;99.90;;;;;;7394820;19;20142;-84
2023/09/24 02:05:09;;;;;;;0.10;0.10;;;14.60;99.90;;;;;;7393643;19;20147;-83
2023/09/24 02:07:36;;;;;;;0.52;0.30;;;14.30;99.90;;;;;;7392480;19;20135;-84
2023/09/24 02:10:05;;;;;;;0.20;0.20;;;14.20;99.90;;;;;;7393903;19;20218;-84
2023/09/24 02:12:35;;;;;;;0.28;0.28;;;14.10;99.90;;;;;;7396586;19;20531;-83
2023/09/24 02:15:05;;;;;;;0.35;0.20;;;14.20;99.90;;;;;;7394927;19;20611;-83
2023/09/24 02:17:31;;;;;;;0.20;0.20;;;14.00;99.90;;;;;;7397950;19;20143;-83
2023/09/24 02:19:57;;;;;;;0.22;0.22;;;14.10;99.90;;;;;;7395073;19;20642;-84
2023/09/24 02:22:23;;;;;;;0.20;0.20;;;14.20;99.90;;;;;;7395157;19;20784;-83
2023/09/24 02:24:48;;;;;;;0.20;0.20;;;14.10;99.90;;;;;;7396336;19;20135;-85
2023/09/24 02:27:14;;;;;;;0.20;0.20;;;14.30;99.90;;;;;;7392782;19;20211;-84
2023/09/24 02:29:40;;;;;;;0.10;0.10;;;14.30;99.90;;;;;;7394402;19;20134;-84
2023/09/24 02:32:06;;;;;;;0.10;0.10;;;14.00;99.90;;;;;;7394338;19;20147;-85
2023/09/24 02:34:31;;;;;;;0.20;0.20;;;13.70;99.90;;;;;;7393689;19;20210;-84
2023/09/24 02:36:58;;;;;;;0.10;0.10;;;13.90;99.90;;;;;;7394696;19;20127;-84
2023/09/24 02:39:23;;;;;;;0.20;0.20;;;14.20;99.90;;;;;;7395059;19;20138;-84
2023/09/24 02:41:49;;;;;;;0.10;0.10;;;14.10;99.90;;;;;;7395606;19;20134;-84
2023/09/24 02:44:17;;;;;;;0.20;0.20;;;13.90;99.90;;;;;;7394214;19;20135;-84
2023/09/24 02:46:44;;;;;;;0.25;0.25;;;13.80;99.90;;;;;;7394395;19;20606;-84
2023/09/24 02:49:10;;;;;;;0.10;0.10;;;13.60;99.90;;;;;;7394276;19;20186;-83
2023/09/24 02:51:38;;;;;;;0.15;0.15;;;13.20;99.90;;;;;;7392796;19;20488;-84
2023/09/24 02:54:07;;;;;;;0.20;0.20;;;13.20;99.90;;;;;;7392239;19;20147;-83
2023/09/24 02:56:33;;;;;;;0.10;0.10;;;13.10;99.90;;;;;;7394695;19;20135;-84
2023/09/24 02:58:59;;;;;;;0.10;0.10;;;13.20;99.90;;;;;;7394982;19;20157;-84
2023/09/24 03:01:25;;;;;;;0.10;0.10;;;13.10;99.90;;;;;;7395509;19;20610;-84
2023/09/24 03:03:51;;;;;;;2.25;0.28;;;13.10;99.90;;;;;;7394418;19;20183;-84
2023/09/24 03:06:17;;;;;;;0.10;0.10;;;13.30;99.90;;;;;;7391576;19;20510;-84
2023/09/24 03:08:43;;;;;;;0.20;0.20;;;13.30;99.90;;;;;;7394934;19;20220;-84
2023/09/24 03:11:14;;;;;;;0.20;0.20;;;13.70;99.90;;;;;;7396523;19;20883;-84
2023/09/24 03:13:41;;;;;;;0.20;0.20;;;13.70;99.90;;;;;;7395817;19;20542;-84
2023/09/24 03:16:07;;;;;;;0.22;0.22;;;13.50;99.90;;;;;;7394845;19;20902;-84
2023/09/24 03:18:33;;;;;;;0.30;0.30;;;13.80;99.90;;;;;;7394142;19;20150;-82
2023/09/24 03:20:59;;;;;;;0.20;0.20;;;14.00;99.90;;;;;;7394644;19;20142;-84
2023/09/24 03:23:24;;;;;;;0.20;0.20;;;14.20;99.90;;;;;;7393968;19;20137;-83
2023/09/24 03:25:50;;;;;;;0.10;0.10;;;14.40;99.90;;;;;;7394622;19;20170;-83
2023/09/24 03:28:16;;;;;;;0.30;0.30;;;14.40;99.90;;;;;;7394706;19;21027;-83
2023/09/24 03:30:42;;;;;;;0.22;0.22;;;14.20;99.90;;;;;;7394577;19;20158;-83
2023/09/24 03:33:07;;;;;;;0.20;0.20;;;14.00;99.90;;;;;;7394357;19;20134;-82
2023/09/24 03:35:33;;;;;;;0.30;0.30;;;14.00;99.90;;;;;;7394573;19;20145;-83
2023/09/24 03:37:59;;;;;;;0.20;0.20;;;13.90;99.90;;;;;;7392208;19;20143;-84
2023/09/24 03:40:26;;;;;;;0.20;0.20;;;13.60;99.90;;;;;;7394614;19;20838;-83
2023/09/24 03:42:52;;;;;;;0.20;0.20;;;13.90;99.90;;;;;;7392586;19;20150;-83
2023/09/24 03:45:19;;;;;;;0.30;0.30;;;14.00;99.90;;;;;;7392987;19;20519;-83
2023/09/24 03:47:46;;;;;;;0.20;0.20;;;14.30;99.90;;;;;;7390998;19;20157;-83
2023/09/24 03:50:13;;;;;;;0.20;0.20;;;14.20;99.90;;;;;;7393365;19;20147;-83
2023/09/24 03:52:44;;;;;;;0.20;0.20;;;14.30;99.90;;;;;;7394122;19;20551;-83
2023/09/24 03:55:10;;;;;;;0.52;0.52;;;14.30;99.90;;;;;;7392727;19;20146;-83
2023/09/24 03:57:36;;;;;;;0.25;0.25;;;14.40;99.90;;;;;;7392841;19;21452;-83
2023/09/24 04:00:16;;;;;;;0.20;0.20;;;14.30;99.90;;;;;;7393573;19;20142;-84
2023/09/24 04:02:46;;;;;;;0.20;0.20;;;14.20;99.90;;;;;;7393367;19;20154;-84
2023/09/24 04:05:17;;;;;;;0.10;0.10;;;13.90;99.90;;;;;;7394040;19;20522;-83
2023/09/24 04:07:47;;;;;;;0.20;0.20;;;13.40;99.90;;;;;;7397826;19;20154;-83
2023/09/24 04:10:14;;;;;;;0.10;0.10;;;13.10;99.90;;;;;;7398442;19;20138;-83
2023/09/24 04:12:46;;;;;;;0.20;0.20;;;12.90;99.90;;;;;;7398542;19;20179;-84
2023/09/24 04:15:12;;;;;;;0.20;0.20;;;12.80;99.90;;;;;;7398272;19;20141;-83
2023/09/24 04:17:41;;;;;;;0.10;0.10;;;12.60;99.90;;;;;;7399070;19;20134;-82
2023/09/24 04:20:08;;;;;;;0.20;0.20;;;12.50;99.90;;;;;;7398030;19;20838;-83
2023/09/24 04:22:34;;;;;;;0.20;0.20;;;12.90;99.90;;;;;;7397772;19;20202;-84
2023/09/24 04:24:59;;;;;;;0.20;0.20;;;13.30;99.90;;;;;;7399215;19;20155;-84
2023/09/24 04:27:26;;;;;;;0.20;0.20;;;13.40;99.90;;;;;;7396746;19;20783;-84
2023/09/24 04:29:52;;;;;;;0.20;0.20;;;13.20;99.90;;;;;;7399805;19;20145;-84
2023/09/24 04:32:18;;;;;;;0.30;0.30;;;13.10;99.90;;;;;;7398904;19;20635;-84
2023/09/24 04:34:47;;;;;;;0.30;0.30;;;13.10;99.90;;;;;;7398469;19;20171;-84
2023/09/24 04:37:17;;;;;;;0.20;0.20;;;13.00;99.90;;;;;;7398706;19;20145;-83
2023/09/24 04:39:47;;;;;;;0.20;0.20;;;13.10;99.90;;;;;;7398375;19;20134;-82
2023/09/24 04:42:14;;;;;;;0.20;0.20;;;13.60;99.90;;;;;;7398411;19;20164;-83
2023/09/24 04:44:41;;;;;;;0.20;0.20;;;13.40;99.90;;;;;;7397409;19;20836;-83
2023/09/24 04:47:07;;;;;;;0.40;0.40;;;13.40;99.90;;;;;;7395350;19;21108;-83
2023/09/24 04:49:33;;;;;;;0.20;0.20;;;13.50;99.90;;;;;;7397277;19;20146;-83
2023/09/24 04:51:59;;;;;;;0.25;0.25;;;13.50;99.90;;;;;;7396782;19;20154;-82
2023/09/24 04:54:24;;;;;;;0.13;0.13;;;13.30;99.90;;;;;;7396474;19;20194;-83
2023/09/24 04:56:51;;;;;;;0.20;0.20;;;12.90;99.90;;;;;;7396914;19;20530;-82
2023/09/24 04:59:17;;;;;;;0.20;0.20;;;12.70;99.90;;;;;;7397975;19;20490;-82
2023/09/24 05:01:43;;;;;;;0.28;0.28;;;12.90;99.90;;;;;;7396764;19;20134;-83
2023/09/24 05:04:09;;;;;;;0.20;0.20;;;13.10;99.90;;;;;;7397481;19;20131;-83
2023/09/24 05:06:35;;;;;;;0.20;0.20;;;13.20;99.90;;;;;;7396406;19;20146;-83
2023/09/24 05:09:01;;;;;;;0.20;0.20;;;13.20;99.90;;;;;;7399298;19;20145;-83
2023/09/24 05:11:27;;;;;;;0.20;0.20;;;13.20;99.90;;;;;;7397815;19;20142;-83
2023/09/24 05:13:53;;;;;;;0.10;0.10;;;13.30;99.90;;;;;;7397360;19;20507;-83
2023/09/24 05:16:19;;;;;;;0.20;0.20;;;13.50;99.90;;;;;;7395705;19;20154;-82
2023/09/24 05:18:45;;;;;;;0.20;0.20;;;13.30;99.90;;;;;;7395246;19;20135;-84
2023/09/24 05:21:15;;;;;;;0.20;0.20;;;13.30;99.90;;;;;;7396520;19;20146;-84
2023/09/24 05:23:41;;;;;;;0.30;0.30;;;13.30;99.90;;;;;;7398066;19;20145;-83
2023/09/24 05:26:12;;;;;;;0.28;0.28;;;13.30;99.90;;;;;;7394813;19;20469;-84
2023/09/24 05:28:40;;;;;;;0.10;0.10;;;13.30;99.90;;;;;;7397757;19;20155;-83
2023/09/24 05:31:06;;;;;;;0.10;0.10;;;13.20;99.90;;;;;;7396520;19;20153;-84
2023/09/24 05:33:31;;;;;;;0.20;0.20;;;13.40;99.90;;;;;;7396806;19;20142;-83
2023/09/24 05:35:57;;;;;;;0.10;0.10;;;13.50;99.90;;;;;;7396020;19;20135;-84
2023/09/24 05:38:26;;;;;;;0.10;0.10;;;13.70;99.90;;;;;;7394684;19;20149;-83
2023/09/24 05:40:52;;;;;;;0.20;0.20;;;13.60;99.90;;;;;;7396347;19;20135;-83
2023/09/24 05:43:19;;;;;;;0.20;0.20;;;13.70;99.90;;;;;;7397503;19;20198;-83
2023/09/24 05:45:46;;;;;;;0.20;0.20;;;13.60;99.90;;;;;;7396029;19;20151;-83
2023/09/24 05:48:14;;;;;;;0.20;0.20;;;13.70;99.90;;;;;;7396236;19;20156;-83
2023/09/24 05:50:41;;;;;;;0.20;0.20;;;13.70;99.90;;;;;;7395789;19;20485;-84
2023/09/24 05:53:09;;;;;;;0.10;0.10;;;13.60;99.90;;;;;;7396682;19;20476;-83
2023/09/24 05:55:35;;;;;;;0.20;0.20;;;13.70;99.90;;;;;;7397869;19;20452;-84
2023/09/24 05:58:01;;;;;;;0.17;0.17;;;13.80;99.90;;;;;;7397214;19;20146;-83
2023/09/24 06:00:28;;;;;;;0.43;0.43;;;13.70;99.90;;;;;;7397558;19;20217;-83
2023/09/24 06:02:57;;;;;;;0.10;0.10;;;13.80;99.90;;;;;;7398389;19;20131;-83
2023/09/24 06:05:23;;;;;;;0.10;0.10;;;13.70;99.90;;;;;;7395567;19;20175;-84
2023/09/24 06:07:48;;;;;;;0.20;0.20;;;13.70;99.90;;;;;;7395418;19;20245;-83
2023/09/24 06:10:14;;;;;;;0.20;0.20;;;13.80;99.90;;;;;;7396762;19;20142;-83
2023/09/24 06:12:40;;;;;;;0.20;0.20;;;13.90;99.90;;;;;;7396887;19;20131;-87
2023/09/24 06:15:08;;;;;;;0.20;0.20;;;13.90;99.90;;;;;;7398580;19;20150;-84
2023/09/24 06:17:34;;;;;;;0.30;0.30;;;13.90;99.90;;;;;;7396563;19;20142;-90
2023/09/24 06:20:00;;;;;;;0.20;0.20;;;13.90;99.90;;;;;;7396578;19;20151;-86
2023/09/24 06:22:27;;;;;;;0.28;0.28;;;13.80;99.90;;;;;;7397761;19;20127;-87
2023/09/24 06:24:53;;;;;;;0.30;0.30;;;13.70;99.90;;;;;;7397461;19;20139;-88
2023/09/24 06:27:21;;;;;;;0.45;0.45;;;13.80;99.90;;;;;;7394436;19;20153;-88
2023/09/24 06:29:47;;;;;;;0.10;0.10;;;13.70;99.90;;;;;;7399651;19;20168;-87
2023/09/24 06:32:16;;;;;;;0.20;0.20;;;13.50;99.90;;;;;;7402389;19;20482;-86
2023/09/24 06:34:42;;;;;;;0.22;0.22;;;13.60;99.90;;;;;;7404590;19;20146;-87
2023/09/24 06:37:08;;;;;;;0.20;0.20;;;13.70;99.90;;;;;;7400961;19;20147;-86
2023/09/24 06:39:33;;;;;;;0.20;0.20;;;13.60;99.90;;;;;;7401448;19;20138;-85
2023/09/24 06:42:02;;;;;;;0.25;0.25;;;13.60;99.90;;;;;;7395592;19;20154;-84
2023/09/24 06:44:31;;;;;;;0.17;0.17;;;13.30;99.90;;;;;;7398338;19;20146;-86
2023/09/24 06:46:57;;;;;;;0.20;0.20;;;13.30;99.90;;;;;;7393663;19;20137;-85
2023/09/24 06:49:22;;;;;;;0.30;0.30;;;13.70;99.90;;;;;;7396241;19;20143;-88
2023/09/24 06:51:53;;;;;;;0.15;0.15;;;13.40;99.90;;;;;;7393522;19;20497;-85
2023/09/24 06:54:20;;;;;;;0.25;0.25;;;13.50;99.90;;;;;;7395529;19;20156;-86
2023/09/24 06:56:46;;;;;;;0.90;0.65;;;13.30;99.90;;;;;;7398538;19;20130;-86
2023/09/24 06:59:12;;;;;;;0.10;0.10;;;13.40;99.90;;;;;;7399110;19;20142;-88
2023/09/24 07:01:38;;;;;;;0.20;0.20;;;13.50;99.90;;;;;;7401157;19;20199;-87
2023/09/24 07:04:06;;;;;;;0.32;0.32;;;13.50;99.90;;;;;;7401931;19;20137;-87
2023/09/24 07:06:32;;;;;;;0.25;0.25;;;13.50;99.90;;;;;;7400530;19;20178;-87
2023/09/24 07:08:59;;;;;;;0.20;0.20;;;13.60;99.90;;;;;;7401728;19;20147;-86
2023/09/24 07:11:31;;;;;;;0.20;0.20;;;13.60;99.90;;;;;;7396894;19;20171;-86
2023/09/24 07:13:57;;;;;;;0.20;0.20;;;13.90;99.90;;;;;;7396275;19;20154;-87
2023/09/24 07:16:25;;;;;;;0.30;0.30;;;14.10;99.90;;;;;;7395863;19;20175;-87
2023/09/24 07:18:52;;;;;;;0.10;0.10;;;14.20;99.90;;;;;;7395733;19;20151;-89
2023/09/24 07:21:21;;;;;;;0.22;0.20;;;14.20;99.90;;;;;;7397497;19;20565;-89
2023/09/24 07:23:48;;;;;;;0.20;0.20;;;14.30;99.90;;;;;;7396389;19;20139;-89
2023/09/24 07:26:14;;;;;;;0.30;0.30;;;14.20;99.90;;;;;;7394380;19;20254;-88
2023/09/24 07:28:44;;;;;;;0.75;0.75;;;14.20;99.90;;;;;;7396204;19;20135;-86
2023/09/24 07:31:21;;;;;;;0.30;0.30;;;14.30;99.90;;;;;;7394970;19;20159;-86
2023/09/24 07:33:50;;;;;;;0.20;0.20;;;14.40;99.90;;;;;;7394842;19;20487;-87
2023/09/24 07:36:16;;;;;;;0.20;0.20;;;14.40;99.90;;;;;;7396339;19;20147;-86
2023/09/24 07:38:42;;;;;;;0.20;0.20;;;14.40;99.90;;;;;;7395165;19;20222;-87
2023/09/24 07:41:08;;;;;;;0.25;0.25;;;14.40;99.90;;;;;;7393790;19;20166;-87
2023/09/24 07:43:36;;;;;;;0.30;0.30;;;14.40;99.90;;;;;;7395195;19;20202;-85
2023/09/24 07:46:02;;;;;;;0.20;0.20;;;14.50;99.90;;;;;;7393958;19;20165;-86
2023/09/24 07:48:28;;;;;;;0.20;0.20;;;14.60;99.90;;;;;;7394640;19;20150;-86
2023/09/24 07:50:55;;;;;;;0.30;0.30;;;14.60;99.90;;;;;;7394724;19;20169;-90
2023/09/24 07:53:22;;;;;;;0.20;0.20;;;14.70;99.90;;;;;;7396744;19;20151;-85
2023/09/24 07:55:58;;;;;;;0.20;0.20;;;14.60;99.90;;;;;;7394361;19;20161;-85
2023/09/24 07:58:24;;;;;;;0.20;0.20;;;14.70;99.90;;;;;;7394566;19;20138;-84
2023/09/24 08:00:54;;;;;;;0.30;0.30;;;14.70;99.90;;;;;;7393470;19;20455;-84
2023/09/24 08:03:20;;;;;;;0.10;0.10;;;14.70;99.90;;;;;;7393472;19;20139;-83
2023/09/24 08:05:46;;;;;;;0.35;0.20;;;14.70;99.90;;;;;;7393123;19;20157;-84
2023/09/24 08:08:12;;;;;;;0.30;0.30;;;14.70;99.90;;;;;;7394803;19;20135;-84
2023/09/24 08:10:38;;;;;;;0.13;0.13;;;14.70;99.90;;;;;;7399498;19;20131;-84
2023/09/24 08:13:04;;;;;;;0.20;0.20;;;14.90;99.90;;;;;;7399115;19;20150;-81
2023/09/24 08:15:30;;;;;;;0.20;0.20;;;14.90;99.90;;;;;;7394234;19;20150;-84
2023/09/24 08:17:56;;;;;;;0.20;0.20;;;14.90;99.90;;;;;;7392480;19;20493;-87
2023/09/24 08:20:22;;;;;;;0.10;0.10;;;14.90;99.90;;;;;;7394265;19;20179;-86
2023/09/24 08:22:48;;;;;;;0.20;0.20;;;15.00;99.90;;;;;;7392286;19;20169;-85
2023/09/24 08:25:14;;;;;;;0.30;0.30;;;15.00;99.90;;;;;;7395607;19;20173;-89
2023/09/24 08:27:40;;;;;;;0.30;0.30;;;15.20;99.90;;;;;;7391597;19;20165;-86
2023/09/24 08:30:07;;;;;;;0.30;0.30;;;15.30;99.90;;;;;;7392712;19;20170;-84
2023/09/24 08:32:34;;;;;;;0.20;0.20;;;15.40;99.90;;;;;;7393005;19;20221;-89
2023/09/24 08:35:02;;;;;;;0.20;0.20;;;15.50;99.90;;;;;;7391889;19;20142;-89
2023/09/24 08:37:28;;;;;;;0.20;0.20;;;15.70;99.90;;;;;;7393496;19;20504;-87
2023/09/24 08:39:54;;;;;;;0.25;0.25;;;15.90;99.90;;;;;;7391615;19;20177;-86
2023/09/24 08:42:19;;;;;;;0.20;0.20;;;15.90;99.90;;;;;;7392224;19;20521;-85
2023/09/24 08:45:04;;;;;;;0.30;0.30;;;16.00;99.90;;;;;;7390347;19;20184;-86
2023/09/24 08:47:32;;;;;;;0.28;0.28;;;16.00;99.90;;;;;;7390532;19;20126;-84
2023/09/24 08:50:00;;;;;;;0.13;0.13;;;16.20;99.90;;;;;;7391268;19;20146;-84
2023/09/24 08:52:29;;;;;;;0.28;0.28;;;16.40;99.90;;;;;;7393820;19;20154;-86
2023/09/24 08:54:55;;;;;;;0.20;0.20;;;16.50;99.90;;;;;;7396597;19;20134;-83
2023/09/24 08:57:20;;;;;;;0.20;0.20;;;16.60;99.90;;;;;;7398987;19;20574;-86
2023/09/24 08:59:49;;;;;;;0.30;0.30;;;16.60;99.90;;;;;;7398682;19;20130;-85
2023/09/24 09:02:15;;;;;;;0.20;0.20;;;16.80;99.90;;;;;;7398267;19;20130;-86
2023/09/24 09:04:48;;;;;;;0.20;0.20;;;17.00;99.90;;;;;;7396663;19;20515;-86
2023/09/24 09:07:14;;;;;;;0.30;0.30;;;17.20;99.90;;;;;;7394981;19;20154;-87
2023/09/24 09:09:41;;;;;;;0.20;0.20;;;17.20;99.90;;;;;;7398485;19;20495;-86
2023/09/24 09:12:17;;;;;;;0.43;0.43;;;17.10;99.90;;;;;;7398184;19;20156;-87
2023/09/24 09:14:43;;;;;;;0.30;0.30;;;17.10;99.90;;;;;;7396966;19;20655;-87
2023/09/24 09:17:09;;;;;;;0.20;0.20;;;17.20;99.90;;;;;;7398506;19;20139;-85
2023/09/24 09:19:52;;;;;;;0.35;0.35;;;17.30;99.90;;;;;;7396686;19;20150;-87
2023/09/24 09:22:22;;;;;;;0.10;0.10;;;17.40;99.90;;;;;;7396094;19;20603;-89
2023/09/24 09:25:09;;;;;;;0.10;0.10;;;17.40;99.90;;;;;;7397209;19;20146;-88
2023/09/24 09:27:36;;;;;;;0.20;0.20;;;17.40;99.90;;;;;;7396567;19;20480;-84
2023/09/24 09:30:20;;;;;;;0.17;0.17;;;17.40;99.90;;;;;;7398579;19;20148;-84
2023/09/24 09:32:47;;;;;;;0.10;0.10;;;17.60;99.90;;;;;;7397559;19;20155;-85
2023/09/24 09:35:16;;;;;;;0.20;0.20;;;17.60;99.90;;;;;;7397526;19;20135;-82
2023/09/24 09:37:43;;;;;;;0.40;0.30;;;17.60;99.90;;;;;;7396064;19;20177;-82
2023/09/24 09:40:09;;;;;;;0.20;0.20;;;17.70;99.90;;;;;;7396989;19;20206;-80
2023/09/24 09:42:37;;;;;;;0.10;0.10;;;17.70;99.90;;;;;;7397542;19;20572;-80
2023/09/24 09:45:09;;;;;;;0.30;0.30;;;17.70;99.90;;;;;;7394817;19;20158;-79
2023/09/24 09:48:03;;;;;;;0.10;0.10;;;17.80;99.90;;;;;;7394685;19;20143;-79
2023/09/24 09:50:32;;;;;;;0.20;0.20;;;17.90;99.90;;;;;;7395038;19;20147;-80
2023/09/24 09:53:07;;;;;;;0.15;0.15;;;18.00;99.90;;;;;;7395612;19;20165;-80
2023/09/24 09:55:39;;;;;;;0.20;0.20;;;18.10;99.90;;;;;;7393157;19;20615;-79
2023/09/24 09:58:07;;;;;;;0.63;0.55;;;18.20;99.90;;;;;;7396191;19;20145;-78
2023/09/24 10:00:33;;;;;;;0.20;0.20;;;18.30;99.90;;;;;;7395802;19;20157;-80
2023/09/24 10:03:01;;;;;;;0.35;0.35;;;18.30;99.90;;;;;;7392278;19;20149;-78
2023/09/24 10:05:27;;;;;;;0.10;0.10;;;18.50;99.90;;;;;;7392710;19;20177;-77
2023/09/24 10:07:53;;;;;;;0.10;0.10;;;18.40;99.90;;;;;;7389545;19;20202;-78
2023/09/24 10:10:31;;;;;;;0.10;0.10;;;18.40;99.90;;;;;;7393549;19;20156;-77
2023/09/24 10:13:02;;;;;;;0.10;0.10;;;18.40;99.90;;;;;;7392870;19;20170;-76
2023/09/24 10:15:31;;;;;;;0.10;0.10;;;18.50;99.90;;;;;;7393262;19;20623;-78
2023/09/24 10:18:09;;;;;;;0.10;0.10;;;18.30;99.90;;;;;;7392928;19;20174;-77
2023/09/24 10:20:50;;;;;;;0.30;0.30;;;18.30;99.90;;;;;;7392983;19;20140;-78
2023/09/24 10:23:37;;;;;;;0.20;0.20;;;18.40;99.90;;;;;;7394503;19;20126;-78
2023/09/24 10:26:05;;;;;;;0.20;0.20;;;18.40;99.90;;;;;;7393804;19;20605;-80
2023/09/24 10:28:48;;;;;;;0.20;0.20;;;18.60;99.90;;;;;;7395646;19;20127;-81
2023/09/24 10:31:17;;;;;;;0.10;0.10;;;18.70;99.90;;;;;;7392823;19;20134;-80
2023/09/24 10:33:59;;;;;;;0.20;0.20;;;18.70;99.90;;;;;;7393062;19;20150;-79
2023/09/24 10:36:30;;;;;;;0.10;0.10;;;18.70;99.90;;;;;;7394327;19;20145;-80
2023/09/24 10:39:04;;;;;;;0.17;0.10;;;18.80;99.90;;;;;;7392217;19;20135;-80
2023/09/24 10:41:31;;;;;;;0.30;0.30;;;18.80;99.90;;;;;;7392496;19;20144;-79
2023/09/24 10:44:21;;;;;;;0.13;0.13;;;18.80;99.90;;;;;;7392237;19;20153;-82
2023/09/24 10:46:47;;;;;;;0.20;0.20;;;18.80;99.90;;;;;;7394741;19;20157;-81
2023/09/24 10:49:21;;;;;;;0.10;0.10;;;19.00;99.90;;;;;;7393819;19;20130;-81
2023/09/24 10:51:48;;;;;;;0.20;0.20;;;19.10;99.90;;;;;;7392557;19;20135;-80
2023/09/24 10:54:15;;;;;;;0.20;0.20;;;19.00;99.90;;;;;;7390924;19;20472;-78
2023/09/24 10:56:47;;;;;;;0.20;0.20;;;19.20;99.90;;;;;;7393940;19;20135;-78
2023/09/24 10:59:16;;;;;;;0.20;0.20;;;19.10;99.90;;;;;;7396256;19;20127;-78
2023/09/24 11:01:43;;;;;;;0.10;0.10;;;19.00;99.90;;;;;;7391250;19;20492;-79
2023/09/24 11:04:09;;;;;;;0.35;0.25;;;19.00;99.90;;;;;;7390699;19;20165;-79
2023/09/24 11:06:36;;;;;;;0.20;0.20;;;19.00;99.90;;;;;;7387161;19;20596;-78
2023/09/24 11:09:15;;;;;;;0.10;0.10;;;19.10;99.90;;;;;;7393462;19;20494;-79
2023/09/24 11:11:42;;;;;;;0.20;0.20;;;19.30;99.90;;;;;;7391419;19;20154;-79
2023/09/24 11:14:25;;;;;;;0.30;0.30;;;19.20;99.90;;;;;;7389949;19;20154;-82
2023/09/24 11:16:53;;;;;;;0.10;0.10;;;19.40;99.90;;;;;;7391622;19;20159;-79
2023/09/24 11:19:45;;;;;;;0.20;0.20;;;19.40;99.90;;;;;;7392359;19;20147;-78
2023/09/24 11:22:19;;;;;;;0.20;0.20;;;19.40;99.90;;;;;;7391513;19;20173;-79
2023/09/24 11:25:04;;;;;;;0.20;0.20;;;19.40;99.90;;;;;;7391951;19;20154;-79
2023/09/24 11:27:34;;;;;;;0.20;0.20;;;19.40;99.90;;;;;;7389029;19;20138;-81
2023/09/24 11:30:02;;;;;;;0.30;0.30;;;19.50;99.90;;;;;;7391476;19;20150;-79
2023/09/24 11:32:28;;;;;;;0.13;0.13;;;19.50;99.90;;;;;;7391480;19;20142;-78
2023/09/24 11:35:08;;;;;;;0.30;0.30;;;19.40;99.90;;;;;;7391852;19;20497;-78
2023/09/24 11:38:01;;;;;;;0.20;0.20;;;19.20;99.90;;;;;;7391741;19;20222;-79
2023/09/24 11:40:29;;;;;;;0.10;0.10;;;19.20;99.90;;;;;;7390152;19;20134;-77
2023/09/24 11:42:59;;;;;;;0.10;0.10;;;19.40;99.90;;;;;;7393328;19;20231;-79
2023/09/24 11:45:50;;;;;;;0.20;0.20;;;19.60;99.90;;;;;;7390901;19;20150;-79
2023/09/24 11:48:27;;;;;;;0.10;0.10;;;19.70;99.90;;;;;;7387252;19;20150;-79
2023/09/24 11:50:54;;;;;;;0.10;0.10;;;19.80;99.90;;;;;;7394240;19;20134;-78
2023/09/24 11:53:22;;;;;;;0.22;0.22;;;20.10;99.90;;;;;;7393006;19;20142;-78
2023/09/24 11:55:49;;;;;;;0.20;0.20;;;20.00;99.90;;;;;;7392275;19;20476;-79
2023/09/24 11:58:17;;;;;;;0.20;0.20;;;20.10;99.90;;;;;;7391006;19;20146;-80
2023/09/24 12:00:44;;;;;;;0.10;0.10;;;20.10;99.90;;;;;;7392346;19;20230;-79
2023/09/24 12:03:10;;;;;;;0.10;0.10;;;19.90;99.90;;;;;;7393287;19;20141;-78
2023/09/24 12:05:36;;;;;;;0.13;0.13;;;20.00;99.90;;;;;;7387917;19;20578;-79
2023/09/24 12:08:04;;;;;;;0.17;0.17;;;20.00;99.90;;;;;;7388136;19;20214;-77
2023/09/24 12:10:31;;;;;;;0.25;0.25;;;20.10;99.90;;;;;;7389424;19;20142;-78
2023/09/24 12:13:01;;;;;;;0.20;0.20;;;20.20;99.90;;;;;;7391104;19;20138;-79
2023/09/24 12:15:31;;;;;;;0.10;0.10;;;20.30;99.90;;;;;;7389661;19;20142;-79
2023/09/24 12:17:59;;;;;;;0.20;0.20;;;20.20;99.90;;;;;;7390474;19;20138;-78
2023/09/24 12:20:26;;;;;;;0.10;0.10;;;20.20;99.90;;;;;;7390880;19;20150;-78
2023/09/24 12:22:52;;;;;;;0.20;0.20;;;20.20;99.90;;;;;;7390455;19;20182;-80
2023/09/24 12:25:18;;;;;;;0.10;0.10;;;20.20;99.90;;;;;;7391846;19;20154;-79
2023/09/24 12:27:44;;;;;;;0.30;0.30;;;20.30;99.90;;;;;;7393204;19;20137;-80
2023/09/24 12:30:12;;;;;;;0.10;0.10;;;20.30;99.90;;;;;;7395937;19;20154;-79
2023/09/24 12:32:39;;;;;;;0.10;0.10;;;20.20;99.90;;;;;;7397256;19;20176;-79
2023/09/24 12:35:07;;;;;;;0.13;0.13;;;20.10;99.90;;;;;;7396510;19;20570;-79
2023/09/24 12:37:34;;;;;;;0.28;0.20;;;19.80;99.90;;;;;;7394752;19;20141;-80
2023/09/24 12:40:04;;;;;;;0.10;0.10;;;19.60;99.90;;;;;;7395187;19;20147;-79
2023/09/24 12:42:31;;;;;;;0.10;0.10;;;19.80;99.90;;;;;;7394165;19;20146;-79
2023/09/24 12:45:00;;;;;;;0.30;0.20;;;20.00;99.90;;;;;;7393628;19;20185;-79
2023/09/24 12:47:28;;;;;;;0.10;0.10;;;20.00;99.90;;;;;;7393580;19;20150;-81
2023/09/24 12:49:56;;;;;;;0.10;0.10;;;20.00;99.90;;;;;;7396307;19;20134;-79
2023/09/24 12:52:30;;;;;;;0.10;0.10;;;20.10;99.90;;;;;;7396840;19;20746;-80
2023/09/24 12:54:56;;;;;;;0.10;0.10;;;20.20;99.90;;;;;;7396198;19;20149;-80